sensor_id;sensor_type;location;lat;lon;timestamp;pressure;altitude;pressure_sealevel;temperature;humidity
77583;BME280;66726;52.388;9.986;2024-01-15T00:01:36;98930.41;;;0.86;100.00
77583;BME280;66726;52.388;9.986;2024-01-15T00:04:04;98939.16;;;0.87;100.00
77583;BME280;66726;52.388;9.986;2024-01-15T00:06:33;98932.50;;;0.83;100.00
77583;BME280;66726;52.388;9.986;2024-01-15T00:09:02;98926.56;;;0.81;100.00
77583;BME280;66726;52.388;9.986;2024-01-15T00:11:30;98924.59;;;0.83;100.00
77583;BME280;66726;52.388;9.986;2024-01-15T00:13:59;98930.03;;;0.81;100.00
77583;BME280;66726;52.388;9.986;2024-01-15T00:16:29;98928.22;;;0.82;100.00
77583;BME280;66726;52.388;9.986;2024-01-15T00:18:57;98923.09;;;0.80;100.00
77583;BME280;66726;52.388;9.986;2024-01-15T00:21:26;98923.22;;;0.79;100.00
77583;BME280;66726;52.388;9.986;2024-01-15T00:23:55;98931.66;;;0.82;100.00
77583;BME280;66726;52.388;9.986;2024-01-15T00:26:23;98921.84;;;0.84;100.00
77583;BME280;66726;52.388;9.986;2024-01-15T00:28:51;98913.78;;;0.86;100.00
77583;BME280;66726;52.388;9.986;2024-01-15T00:31:20;98912.41;;;0.82;100.00
77583;BME280;66726;52.388;9.986;2024-01-15T00:33:50;98906.31;;;0.81;100.00
77583;BME280;66726;52.388;9.986;2024-01-15T00:36:19;98917.69;;;0.82;100.00
77583;BME280;66726;52.388;9.986;2024-01-15T00:38:48;98916.84;;;0.81;100.00
77583;BME280;66726;52.388;9.986;2024-01-15T00:41:16;98910.47;;;0.84;100.00
77583;BME280;66726;52.388;9.986;2024-01-15T00:43:45;98896.63;;;0.82;100.00
77583;BME280;66726;52.388;9.986;2024-01-15T00:46:16;98898.53;;;0.80;100.00
77583;BME280;66726;52.388;9.986;2024-01-15T00:48:44;98885.25;;;0.81;100.00
77583;BME280;66726;52.388;9.986;2024-01-15T00:51:15;98880.28;;;0.78;100.00
77583;BME280;66726;52.388;9.986;2024-01-15T00:53:44;98885.81;;;0.75;100.00
77583;BME280;66726;52.388;9.986;2024-01-15T00:56:12;98881.66;;;0.73;100.00
77583;BME280;66726;52.388;9.986;2024-01-15T00:58:41;98883.63;;;0.71;100.00
77583;BME280;66726;52.388;9.986;2024-01-15T01:01:09;98878.63;;;0.68;100.00
77583;BME280;66726;52.388;9.986;2024-01-15T01:03:38;98874.19;;;0.68;100.00
77583;BME280;66726;52.388;9.986;2024-01-15T01:06:06;98875.84;;;0.69;100.00
77583;BME280;66726;52.388;9.986;2024-01-15T01:08:36;98876.84;;;0.68;100.00
77583;BME280;66726;52.388;9.986;2024-01-15T01:11:05;98874.88;;;0.70;100.00
77583;BME280;66726;52.388;9.986;2024-01-15T01:13:34;98878.34;;;0.71;100.00
77583;BME280;66726;52.388;9.986;2024-01-15T01:16:02;98875.00;;;0.69;100.00
77583;BME280;66726;52.388;9.986;2024-01-15T01:18:31;98873.50;;;0.66;100.00
77583;BME280;66726;52.388;9.986;2024-01-15T01:21:00;98876.13;;;0.66;100.00
77583;BME280;66726;52.388;9.986;2024-01-15T01:23:28;98876.97;;;0.67;100.00
77583;BME280;66726;52.388;9.986;2024-01-15T01:25:58;98873.50;;;0.66;100.00
77583;BME280;66726;52.388;9.986;2024-01-15T01:28:27;98860.88;;;0.70;100.00
77583;BME280;66726;52.388;9.986;2024-01-15T01:30:55;98871.56;;;0.68;100.00
77583;BME280;66726;52.388;9.986;2024-01-15T01:33:24;98872.25;;;0.70;100.00
77583;BME280;66726;52.388;9.986;2024-01-15T01:35:52;98870.56;;;0.69;100.00
77583;BME280;66726;52.388;9.986;2024-01-15T01:38:21;98866.97;;;0.70;100.00
77583;BME280;66726;52.388;9.986;2024-01-15T01:40:49;98864.47;;;0.69;100.00
77583;BME280;66726;52.388;9.986;2024-01-15T01:43:19;98867.81;;;0.71;100.00
77583;BME280;66726;52.388;9.986;2024-01-15T01:45:48;98863.66;;;0.68;100.00
77583;BME280;66726;52.388;9.986;2024-01-15T01:48:16;98861.84;;;0.69;100.00
77583;BME280;66726;52.388;9.986;2024-01-15T01:50:45;98847.16;;;0.66;100.00
77583;BME280;66726;52.388;9.986;2024-01-15T01:53:14;98852.00;;;0.71;100.00
77583;BME280;66726;52.388;9.986;2024-01-15T01:55:43;98839.97;;;0.68;100.00
77583;BME280;66726;52.388;9.986;2024-01-15T01:58:11;98861.16;;;0.67;100.00
77583;BME280;66726;52.388;9.986;2024-01-15T02:00:41;98862.00;;;0.67;100.00
77583;BME280;66726;52.388;9.986;2024-01-15T02:03:10;98850.22;;;0.71;100.00
77583;BME280;66726;52.388;9.986;2024-01-15T02:05:40;98867.81;;;0.71;100.00
77583;BME280;66726;52.388;9.986;2024-01-15T02:08:08;98837.88;;;0.72;100.00
77583;BME280;66726;52.388;9.986;2024-01-15T02:10:37;98833.94;;;0.76;100.00
77583;BME280;66726;52.388;9.986;2024-01-15T02:13:05;98835.63;;;0.77;100.00
77583;BME280;66726;52.388;9.986;2024-01-15T02:15:34;98845.19;;;0.78;100.00
77583;BME280;66726;52.388;9.986;2024-01-15T02:18:06;98829.75;;;0.83;100.00
77583;BME280;66726;52.388;9.986;2024-01-15T02:20:35;98829.75;;;0.83;100.00
77583;BME280;66726;52.388;9.986;2024-01-15T02:23:08;98828.81;;;0.84;100.00
77583;BME280;66726;52.388;9.986;2024-01-15T02:25:39;98823.25;;;0.87;100.00
77583;BME280;66726;52.388;9.986;2024-01-15T02:28:10;98813.41;;;0.89;100.00
77583;BME280;66726;52.388;9.986;2024-01-15T02:30:40;98825.28;;;0.93;100.00
77583;BME280;66726;52.388;9.986;2024-01-15T02:33:10;98833.88;;;0.95;100.00
77583;BME280;66726;52.388;9.986;2024-01-15T02:35:39;98821.38;;;0.97;100.00
77583;BME280;66726;52.388;9.986;2024-01-15T02:38:09;98817.78;;;0.98;100.00
77583;BME280;66726;52.388;9.986;2024-01-15T02:40:38;98814.97;;;0.99;100.00
77583;BME280;66726;52.388;9.986;2024-01-15T02:43:07;98814.19;;;0.99;100.00
77583;BME280;66726;52.388;9.986;2024-01-15T02:45:35;98802.94;;;0.97;100.00
77583;BME280;66726;52.388;9.986;2024-01-15T02:48:04;98814.44;;;0.96;100.00
77583;BME280;66726;52.388;9.986;2024-01-15T02:50:33;98803.91;;;0.96;100.00
77583;BME280;66726;52.388;9.986;2024-01-15T02:53:01;98793.38;;;0.96;100.00
77583;BME280;66726;52.388;9.986;2024-01-15T02:55:31;98807.25;;;0.98;100.00
77583;BME280;66726;52.388;9.986;2024-01-15T02:58:00;98801.97;;;0.98;100.00
77583;BME280;66726;52.388;9.986;2024-01-15T03:00:28;98796.69;;;0.98;100.00
77583;BME280;66726;52.388;9.986;2024-01-15T03:02:57;98800.00;;;1.00;100.00
77583;BME280;66726;52.388;9.986;2024-01-15T03:05:25;98807.25;;;0.98;100.00
77583;BME280;66726;52.388;9.986;2024-01-15T03:07:54;98807.25;;;0.98;100.00
77583;BME280;66726;52.388;9.986;2024-01-15T03:10:22;98793.09;;;0.99;100.00
77583;BME280;66726;52.388;9.986;2024-01-15T03:12:52;98807.91;;;1.00;100.00
77583;BME280;66726;52.388;9.986;2024-01-15T03:15:20;98811.53;;;0.99;100.00
77583;BME280;66726;52.388;9.986;2024-01-15T03:17:49;98814.19;;;0.99;100.00
77583;BME280;66726;52.388;9.986;2024-01-15T03:20:17;98821.91;;;1.00;100.00
77583;BME280;66726;52.388;9.986;2024-01-15T03:22:46;98819.44;;;0.99;100.00
77583;BME280;66726;52.388;9.986;2024-01-15T03:25:14;98812.50;;;0.98;100.00
77583;BME280;66726;52.388;9.986;2024-01-15T03:27:43;98803.66;;;0.99;100.00
77583;BME280;66726;52.388;9.986;2024-01-15T03:30:14;98812.22;;;1.01;100.00
77583;BME280;66726;52.388;9.986;2024-01-15T03:32:42;98807.91;;;1.00;100.00
77583;BME280;66726;52.388;9.986;2024-01-15T03:35:11;98798.38;;;0.99;100.00
77583;BME280;66726;52.388;9.986;2024-01-15T03:37:39;98819.16;;;1.02;100.00
77583;BME280;66726;52.388;9.986;2024-01-15T03:40:09;98817.50;;;1.01;100.00
77583;BME280;66726;52.388;9.986;2024-01-15T03:42:38;98824.56;;;1.00;100.00
77583;BME280;66726;52.388;9.986;2024-01-15T03:45:07;98824.56;;;1.00;100.00
77583;BME280;66726;52.388;9.986;2024-01-15T03:47:37;98830.00;;;0.99;100.00
77583;BME280;66726;52.388;9.986;2024-01-15T03:50:05;98839.28;;;0.93;100.00
77583;BME280;66726;52.388;9.986;2024-01-15T03:52:34;98823.09;;;0.88;100.00
77583;BME280;66726;52.388;9.986;2024-01-15T03:55:03;98825.88;;;0.87;100.00
77583;BME280;66726;52.388;9.986;2024-01-15T03:57:32;98826.41;;;0.90;100.00
77583;BME280;66726;52.388;9.986;2024-01-15T04:00:00;98829.88;;;0.91;100.00
77583;BME280;66726;52.388;9.986;2024-01-15T04:02:30;98826.94;;;0.94;100.00
77583;BME280;66726;52.388;9.986;2024-01-15T04:05:00;98819.03;;;0.94;100.00
77583;BME280;66726;52.388;9.986;2024-01-15T04:07:29;98823.34;;;0.95;100.00
77583;BME280;66726;52.388;9.986;2024-01-15T04:09:57;98813.47;;;0.97;100.00
77583;BME280;66726;52.388;9.986;2024-01-15T04:12:26;98819.72;;;0.96;100.00
77583;BME280;66726;52.388;9.986;2024-01-15T04:14:55;98814.19;;;0.99;100.00
77583;BME280;66726;52.388;9.986;2024-01-15T04:17:23;98822.75;;;1.01;100.00
77583;BME280;66726;52.388;9.986;2024-01-15T04:19:52;98805.81;;;1.03;100.00
77583;BME280;66726;52.388;9.986;2024-01-15T04:22:22;98807.63;;;1.03;100.00
77583;BME280;66726;52.388;9.986;2024-01-15T04:24:51;98818.84;;;1.05;100.00
77583;BME280;66726;52.388;9.986;2024-01-15T04:27:19;98820.78;;;1.03;100.00
77583;BME280;66726;52.388;9.986;2024-01-15T04:29:48;98822.75;;;1.01;100.00
77583;BME280;66726;52.388;9.986;2024-01-15T04:32:16;98814.19;;;0.99;100.00
77583;BME280;66726;52.388;9.986;2024-01-15T04:34:45;98810.00;;;0.96;100.00
77583;BME280;66726;52.388;9.986;2024-01-15T04:37:14;98821.38;;;0.97;100.00
77583;BME280;66726;52.388;9.986;2024-01-15T04:39:44;98805.56;;;0.97;100.00
77583;BME280;66726;52.388;9.986;2024-01-15T04:42:13;98820.56;;;0.96;100.00
77583;BME280;66726;52.388;9.986;2024-01-15T04:44:41;98816.13;;;0.97;100.00
77583;BME280;66726;52.388;9.986;2024-01-15T04:47:09;98812.81;;;0.95;100.00
77583;BME280;66726;52.388;9.986;2024-01-15T04:49:38;98815.88;;;0.90;100.00
77583;BME280;66726;52.388;9.986;2024-01-15T04:52:06;98826.56;;;0.89;100.00
77583;BME280;66726;52.388;9.986;2024-01-15T04:54:37;98814.25;;;0.80;100.00
77583;BME280;66726;52.388;9.986;2024-01-15T04:57:07;98828.69;;;0.76;100.00
77583;BME280;66726;52.388;9.986;2024-01-15T04:59:35;98827.06;;;0.75;100.00
77583;BME280;66726;52.388;9.986;2024-01-15T05:02:04;98822.63;;;0.75;100.00
77583;BME280;66726;52.388;9.986;2024-01-15T05:04:32;98818.16;;;0.76;100.00
77583;BME280;66726;52.388;9.986;2024-01-15T05:07:01;98812.88;;;0.76;100.00
77583;BME280;66726;52.388;9.986;2024-01-15T05:09:30;98804.97;;;0.76;100.00
77583;BME280;66726;52.388;9.986;2024-01-15T05:11:59;98786.53;;;0.76;100.00
77583;BME280;66726;52.388;9.986;2024-01-15T05:14:29;98790.84;;;0.77;100.00
77583;BME280;66726;52.388;9.986;2024-01-15T05:16:58;98797.78;;;0.78;100.00
77583;BME280;66726;52.388;9.986;2024-01-15T05:19:26;98795.81;;;0.80;100.00
77583;BME280;66726;52.388;9.986;2024-01-15T05:21:55;98801.78;;;0.82;100.00
77583;BME280;66726;52.388;9.986;2024-01-15T05:24:23;98799.16;;;0.82;100.00
77583;BME280;66726;52.388;9.986;2024-01-15T05:26:53;98795.53;;;0.83;100.00
77583;BME280;66726;52.388;9.986;2024-01-15T05:29:22;98799.16;;;0.82;100.00
77583;BME280;66726;52.388;9.986;2024-01-15T05:31:52;98795.53;;;0.83;100.00
77583;BME280;66726;52.388;9.986;2024-01-15T05:34:20;98782.66;;;0.80;100.00
77583;BME280;66726;52.388;9.986;2024-01-15T05:36:49;98779.06;;;0.81;100.00
77583;BME280;66726;52.388;9.986;2024-01-15T05:39:17;98785.16;;;0.81;100.00
77583;BME280;66726;52.388;9.986;2024-01-15T05:41:50;98794.84;;;0.81;100.00
77583;BME280;66726;52.388;9.986;2024-01-15T05:44:18;98788.63;;;0.82;100.00
77583;BME280;66726;52.388;9.986;2024-01-15T05:46:46;98787.63;;;0.83;100.00
77583;BME280;66726;52.388;9.986;2024-01-15T05:49:16;98798.03;;;0.84;100.00
77583;BME280;66726;52.388;9.986;2024-01-15T05:51:45;98785.00;;;0.83;100.00
77583;BME280;66726;52.388;9.986;2024-01-15T05:54:13;98793.59;;;0.85;100.00
77583;BME280;66726;52.388;9.986;2024-01-15T05:56:42;98802.88;;;0.89;100.00
77583;BME280;66726;52.388;9.986;2024-01-15T05:59:10;98796.75;;;0.88;100.00
77583;BME280;66726;52.388;9.986;2024-01-15T06:01:42;98792.31;;;0.89;100.00
77583;BME280;66726;52.388;9.986;2024-01-15T06:04:10;98796.47;;;0.91;100.00
77583;BME280;66726;52.388;9.986;2024-01-15T06:06:40;98791.63;;;0.87;100.00
77583;BME280;66726;52.388;9.986;2024-01-15T06:09:09;98795.94;;;0.88;100.00
77583;BME280;66726;52.388;9.986;2024-01-15T06:11:37;98796.06;;;0.86;100.00
77583;BME280;66726;52.388;9.986;2024-01-15T06:14:06;98788.16;;;0.86;100.00
77583;BME280;66726;52.388;9.986;2024-01-15T06:16:34;98785.53;;;0.86;100.00
77583;BME280;66726;52.388;9.986;2024-01-15T06:19:03;98793.19;;;0.80;100.00
77583;BME280;66726;52.388;9.986;2024-01-15T06:21:32;98802.88;;;0.79;100.00
77583;BME280;66726;52.388;9.986;2024-01-15T06:24:02;98804.97;;;0.76;100.00
77583;BME280;66726;52.388;9.986;2024-01-15T06:26:30;98793.66;;;0.75;100.00
77583;BME280;66726;52.388;9.986;2024-01-15T06:28:59;98799.03;;;0.74;100.00
77583;BME280;66726;52.388;9.986;2024-01-15T06:31:27;98800.72;;;0.75;100.00
77583;BME280;66726;52.388;9.986;2024-01-15T06:33:56;98804.59;;;0.71;100.00
77583;BME280;66726;52.388;9.986;2024-01-15T06:36:25;98815.97;;;0.71;100.00
77583;BME280;66726;52.388;9.986;2024-01-15T06:38:53;98804.59;;;0.71;100.00
77583;BME280;66726;52.388;9.986;2024-01-15T06:41:23;98808.91;;;0.72;100.00
77583;BME280;66726;52.388;9.986;2024-01-15T06:43:52;98810.41;;;0.74;100.00
77583;BME280;66726;52.388;9.986;2024-01-15T06:46:21;98799.03;;;0.74;100.00
77583;BME280;66726;52.388;9.986;2024-01-15T06:48:50;98798.22;;;0.73;100.00
77583;BME280;66726;52.388;9.986;2024-01-15T06:51:18;98803.47;;;0.73;100.00
77583;BME280;66726;52.388;9.986;2024-01-15T06:53:47;98802.66;;;0.73;100.00
77583;BME280;66726;52.388;9.986;2024-01-15T06:56:15;98806.94;;;0.74;100.00
77583;BME280;66726;52.388;9.986;2024-01-15T06:58:45;98805.81;;;0.76;100.00
77583;BME280;66726;52.388;9.986;2024-01-15T07:01:13;98812.88;;;0.76;100.00
77583;BME280;66726;52.388;9.986;2024-01-15T07:03:43;98809.28;;;0.77;100.00
77583;BME280;66726;52.388;9.986;2024-01-15T07:06:11;98818.31;;;0.74;100.00
77583;BME280;66726;52.388;9.986;2024-01-15T07:08:40;98812.88;;;0.76;100.00
77583;BME280;66726;52.388;9.986;2024-01-15T07:11:08;98813.59;;;0.78;100.00
77583;BME280;66726;52.388;9.986;2024-01-15T07:13:37;98808.31;;;0.78;100.00
77583;BME280;66726;52.388;9.986;2024-01-15T07:16:07;98800.13;;;0.81;100.00
77583;BME280;66726;52.388;9.986;2024-01-15T07:18:36;98808.69;;;0.83;100.00
77583;BME280;66726;52.388;9.986;2024-01-15T07:21:04;98805.09;;;0.84;100.00
77583;BME280;66726;52.388;9.986;2024-01-15T07:23:33;98810.38;;;0.84;100.00
77583;BME280;66726;52.388;9.986;2024-01-15T07:26:01;98811.03;;;0.86;100.00
77583;BME280;66726;52.388;9.986;2024-01-15T07:28:30;98810.91;;;0.87;100.00
77583;BME280;66726;52.388;9.986;2024-01-15T07:30:58;98820.31;;;0.90;100.00
77583;BME280;66726;52.388;9.986;2024-01-15T07:33:30;98816.72;;;0.91;100.00
77583;BME280;66726;52.388;9.986;2024-01-15T07:35:58;98811.44;;;0.91;100.00
77583;BME280;66726;52.388;9.986;2024-01-15T07:38:30;98820.00;;;0.93;100.00
77583;BME280;66726;52.388;9.986;2024-01-15T07:40:58;98821.97;;;0.91;100.00
77583;BME280;66726;52.388;9.986;2024-01-15T07:43:26;98834.31;;;0.90;100.00
77583;BME280;66726;52.388;9.986;2024-01-15T07:45:56;98827.53;;;0.88;100.00
77583;BME280;66726;52.388;9.986;2024-01-15T07:48:26;98839.22;;;0.85;100.00
77583;BME280;66726;52.388;9.986;2024-01-15T07:50:56;98838.09;;;0.88;100.00
77583;BME280;66726;52.388;9.986;2024-01-15T07:53:24;98827.00;;;0.84;100.00
77583;BME280;66726;52.388;9.986;2024-01-15T07:55:53;98830.75;;;0.82;100.00
77583;BME280;66726;52.388;9.986;2024-01-15T07:58:21;98817.84;;;0.79;100.00
77583;BME280;66726;52.388;9.986;2024-01-15T08:00:50;98824.78;;;0.80;100.00
77583;BME280;66726;52.388;9.986;2024-01-15T08:03:19;98835.88;;;0.83;100.00
77583;BME280;66726;52.388;9.986;2024-01-15T08:05:48;98832.69;;;0.80;100.00
77583;BME280;66726;52.388;9.986;2024-01-15T08:08:21;98840.16;;;0.84;100.00
77583;BME280;66726;52.388;9.986;2024-01-15T08:10:50;98835.03;;;0.83;100.00
77583;BME280;66726;52.388;9.986;2024-01-15T08:13:18;98836.16;;;0.80;100.00
77583;BME280;66726;52.388;9.986;2024-01-15T08:15:47;98828.38;;;0.79;100.00
77583;BME280;66726;52.388;9.986;2024-01-15T08:18:17;98829.22;;;0.79;100.00
77583;BME280;66726;52.388;9.986;2024-01-15T08:20:46;98843.69;;;0.75;100.00
77583;BME280;66726;52.388;9.986;2024-01-15T08:23:14;98840.75;;;0.78;100.00
77583;BME280;66726;52.388;9.986;2024-01-15T08:25:44;98833.81;;;0.77;100.00
77583;BME280;66726;52.388;9.986;2024-01-15T08:28:13;98837.59;;;0.75;100.00
77583;BME280;66726;52.388;9.986;2024-01-15T08:30:41;98846.75;;;0.71;100.00
77583;BME280;66726;52.388;9.986;2024-01-15T08:33:10;98848.53;;;0.70;100.00
77583;BME280;66726;52.388;9.986;2024-01-15T08:35:48;98848.28;;;0.64;100.00
77583;BME280;66726;52.388;9.986;2024-01-15T08:38:17;98851.75;;;0.64;100.00
77583;BME280;66726;52.388;9.986;2024-01-15T08:40:48;98855.06;;;0.66;100.00
77583;BME280;66726;52.388;9.986;2024-01-15T08:43:16;98851.88;;;0.63;100.00
77583;BME280;66726;52.388;9.986;2024-01-15T08:45:45;98855.50;;;0.62;100.00
77583;BME280;66726;52.388;9.986;2024-01-15T08:48:14;98851.88;;;0.63;100.00
77583;BME280;66726;52.388;9.986;2024-01-15T08:50:43;98856.47;;;0.61;100.00
77583;BME280;66726;52.388;9.986;2024-01-15T08:53:13;98852.59;;;0.65;100.00
77583;BME280;66726;52.388;9.986;2024-01-15T08:55:41;98867.41;;;0.66;100.00
77583;BME280;66726;52.388;9.986;2024-01-15T08:58:13;98843.41;;;0.69;100.00
77583;BME280;66726;52.388;9.986;2024-01-15T09:00:41;98859.22;;;0.69;100.00
77583;BME280;66726;52.388;9.986;2024-01-15T09:03:10;98851.31;;;0.69;100.00
77583;BME280;66726;52.388;9.986;2024-01-15T09:05:39;98842.44;;;0.70;100.00
77583;BME280;66726;52.388;9.986;2024-01-15T09:08:08;98858.66;;;0.75;100.00
77583;BME280;66726;52.388;9.986;2024-01-15T09:10:37;98851.84;;;0.82;100.00
77583;BME280;66726;52.388;9.986;2024-01-15T09:13:05;98855.28;;;0.82;100.00
77583;BME280;66726;52.388;9.986;2024-01-15T09:15:35;98855.16;;;0.84;100.00
77583;BME280;66726;52.388;9.986;2024-01-15T09:18:04;98853.47;;;0.83;100.00
77583;BME280;66726;52.388;9.986;2024-01-15T09:20:35;98859.16;;;0.88;100.00
77583;BME280;66726;52.388;9.986;2024-01-15T09:23:03;98854.00;;;0.86;100.00
77583;BME280;66726;52.388;9.986;2024-01-15T09:25:32;98861.78;;;0.88;100.00
77583;BME280;66726;52.388;9.986;2024-01-15T09:28:00;98859.53;;;0.93;100.00
77583;BME280;66726;52.388;9.986;2024-01-15T09:30:29;98863.84;;;0.94;100.00
77583;BME280;66726;52.388;9.986;2024-01-15T09:32:59;98862.88;;;0.95;100.00
77583;BME280;66726;52.388;9.986;2024-01-15T09:35:27;98855.81;;;0.95;100.00
77583;BME280;66726;52.388;9.986;2024-01-15T09:37:56;98858.28;;;0.97;100.00
77583;BME280;66726;52.388;9.986;2024-01-15T09:40:25;98868.81;;;0.97;100.00
77583;BME280;66726;52.388;9.986;2024-01-15T09:42:59;98869.50;;;0.99;100.00
77583;BME280;66726;52.388;9.986;2024-01-15T09:45:28;98867.56;;;1.01;100.00
77583;BME280;66726;52.388;9.986;2024-01-15T09:47:59;98877.66;;;1.06;100.00
77583;BME280;66726;52.388;9.986;2024-01-15T09:50:27;98869.59;;;1.07;100.00
77583;BME280;66726;52.388;9.986;2024-01-15T09:52:57;98883.19;;;1.12;100.00
77583;BME280;66726;52.388;9.986;2024-01-15T09:55:25;98873.47;;;1.13;100.00
77583;BME280;66726;52.388;9.986;2024-01-15T09:57:56;98870.38;;;1.17;100.00
77583;BME280;66726;52.388;9.986;2024-01-15T10:00:26;98876.19;;;1.21;100.00
77583;BME280;66726;52.388;9.986;2024-01-15T10:02:56;98874.25;;;1.23;100.00
77583;BME280;66726;52.388;9.986;2024-01-15T10:05:26;98869.81;;;1.23;100.00
77583;BME280;66726;52.388;9.986;2024-01-15T10:07:57;98874.25;;;1.23;100.00
77583;BME280;66726;52.388;9.986;2024-01-15T10:10:25;98884.63;;;1.24;100.00
77583;BME280;66726;52.388;9.986;2024-01-15T10:12:55;98861.75;;;1.25;100.00
77583;BME280;66726;52.388;9.986;2024-01-15T10:15:25;98883.50;;;1.27;100.00
77583;BME280;66726;52.388;9.986;2024-01-15T10:17:54;98883.66;;;1.25;100.00
77583;BME280;66726;52.388;9.986;2024-01-15T10:20:22;98875.88;;;1.24;100.00
77583;BME280;66726;52.388;9.986;2024-01-15T10:22:52;98888.09;;;1.25;100.00
77583;BME280;66726;52.388;9.986;2024-01-15T10:25:21;98888.94;;;1.25;100.00
77583;BME280;66726;52.388;9.986;2024-01-15T10:28:00;98873.13;;;1.25;100.00
77583;BME280;66726;52.388;9.986;2024-01-15T10:30:29;98877.25;;;1.28;100.00
77583;BME280;66726;52.388;9.986;2024-01-15T10:32:58;98885.03;;;1.29;100.00
77583;BME280;66726;52.388;9.986;2024-01-15T10:35:30;98876.44;;;1.27;100.00
77583;BME280;66726;52.388;9.986;2024-01-15T10:38:00;98878.53;;;1.24;100.00
77583;BME280;66726;52.388;9.986;2024-01-15T10:40:30;98875.66;;;1.17;100.00
77583;BME280;66726;52.388;9.986;2024-01-15T10:42:58;98882.47;;;1.10;100.00
77583;BME280;66726;52.388;9.986;2024-01-15T10:45:27;98866.97;;;1.07;100.00
77583;BME280;66726;52.388;9.986;2024-01-15T10:47:55;98874.28;;;1.13;100.00
77583;BME280;66726;52.388;9.986;2024-01-15T10:50:26;98867.66;;;1.09;100.00
77583;BME280;66726;52.388;9.986;2024-01-15T10:52:55;98864.63;;;1.04;100.00
77583;BME280;66726;52.388;9.986;2024-01-15T10:55:26;98871.41;;;1.07;100.00
77583;BME280;66726;52.388;9.986;2024-01-15T10:57:55;98865.88;;;1.10;100.00
77583;BME280;66726;52.388;9.986;2024-01-15T11:00:25;98864.56;;;1.14;100.00
77583;BME280;66726;52.388;9.986;2024-01-15T11:02:55;98867.91;;;1.16;100.00
77583;BME280;66726;52.388;9.986;2024-01-15T11:05:25;98871.22;;;1.18;100.00
77583;BME280;66726;52.388;9.986;2024-01-15T11:07:55;98869.28;;;1.20;100.00
77583;BME280;66726;52.388;9.986;2024-01-15T11:10:42;98865.50;;;1.22;100.00
77583;BME280;66726;52.388;9.986;2024-01-15T11:13:19;98862.72;;;1.24;100.00
77583;BME280;66726;52.388;9.986;2024-01-15T11:16:01;98865.22;;;1.25;100.00
77583;BME280;66726;52.388;9.986;2024-01-15T11:18:31;98857.00;;;1.28;100.00
77583;BME280;66726;52.388;9.986;2024-01-15T11:21:23;98872.53;;;1.31;100.00
77583;BME280;66726;52.388;9.986;2024-01-15T11:23:54;98876.28;;;1.29;100.00
77583;BME280;66726;52.388;9.986;2024-01-15T11:26:33;98866.47;;;1.21;100.00
77583;BME280;66726;52.388;9.986;2024-01-15T11:29:04;98863.16;;;1.19;100.00
77583;BME280;66726;52.388;9.986;2024-01-15T11:31:57;98862.88;;;1.22;100.00
77583;BME280;66726;52.388;9.986;2024-01-15T11:34:53;98858.13;;;1.26;100.00
77583;BME280;66726;52.388;9.986;2024-01-15T11:37:23;98856.72;;;1.31;100.00
77583;BME280;66726;52.388;9.986;2024-01-15T11:39:53;98858.38;;;1.32;100.00
77583;BME280;66726;52.388;9.986;2024-01-15T11:42:23;98850.84;;;1.37;100.00
77583;BME280;66726;52.388;9.986;2024-01-15T11:44:52;98850.56;;;1.40;100.00
77583;BME280;66726;52.388;9.986;2024-01-15T11:48:06;98864.41;;;1.42;100.00
77583;BME280;66726;52.388;9.986;2024-01-15T11:50:40;98857.19;;;1.44;100.00
77583;BME280;66726;52.388;9.986;2024-01-15T11:53:21;98857.72;;;1.48;100.00
77583;BME280;66726;52.388;9.986;2024-01-15T11:55:52;98862.16;;;1.47;100.00
77583;BME280;66726;52.388;9.986;2024-01-15T11:58:22;98858.25;;;1.51;100.00
77583;BME280;66726;52.388;9.986;2024-01-15T12:00:52;98857.41;;;1.51;100.00
77583;BME280;66726;52.388;9.986;2024-01-15T12:03:22;98859.25;;;1.50;100.00
77583;BME280;66726;52.388;9.986;2024-01-15T12:05:52;98844.41;;;1.49;100.00
77583;BME280;66726;52.388;9.986;2024-01-15T12:08:23;98850.63;;;1.48;100.00
77583;BME280;66726;52.388;9.986;2024-01-15T12:10:54;98848.97;;;1.47;100.00
77583;BME280;66726;52.388;9.986;2024-01-15T12:13:25;98858.72;;;1.47;100.00
77583;BME280;66726;52.388;9.986;2024-01-15T12:15:55;98848.16;;;1.47;100.00
77583;BME280;66726;52.388;9.986;2024-01-15T12:18:24;98847.34;;;1.46;100.00
77583;BME280;66726;52.388;9.986;2024-01-15T12:20:54;98851.91;;;1.44;100.00
77583;BME280;66726;52.388;9.986;2024-01-15T12:23:24;98857.19;;;1.44;100.00
77583;BME280;66726;52.388;9.986;2024-01-15T12:25:54;98855.25;;;1.46;100.00
77583;BME280;66726;52.388;9.986;2024-01-15T12:28:23;98846.63;;;1.44;100.00
77583;BME280;66726;52.388;9.986;2024-01-15T12:30:52;98857.19;;;1.44;100.00
77583;BME280;66726;52.388;9.986;2024-01-15T12:33:21;98838.06;;;1.42;100.00
77583;BME280;66726;52.388;9.986;2024-01-15T12:35:53;98854.84;;;1.41;100.00
77583;BME280;66726;52.388;9.986;2024-01-15T12:38:21;98848.59;;;1.42;100.00
77583;BME280;66726;52.388;9.986;2024-01-15T12:40:50;98843.31;;;1.42;100.00
77583;BME280;66726;52.388;9.986;2024-01-15T12:43:18;98851.38;;;1.41;100.00
77583;BME280;66726;52.388;9.986;2024-01-15T12:45:47;98846.63;;;1.44;100.00
77583;BME280;66726;52.388;9.986;2024-01-15T12:48:17;98854.41;;;1.46;100.00
77583;BME280;66726;52.388;9.986;2024-01-15T12:50:46;98849.97;;;1.46;100.00
77583;BME280;66726;52.388;9.986;2024-01-15T12:53:15;98854.72;;;1.43;99.80
77583;BME280;66726;52.388;9.986;2024-01-15T12:55:44;98862.31;;;1.46;100.00
77583;BME280;66726;52.388;9.986;2024-01-15T12:58:13;98856.88;;;1.47;99.42
77583;BME280;66726;52.388;9.986;2024-01-15T13:00:45;98858.78;;;1.55;100.00
77583;BME280;66726;52.388;9.986;2024-01-15T13:03:15;98858.34;;;1.60;99.80
77583;BME280;66726;52.388;9.986;2024-01-15T13:05:44;98861.94;;;1.59;99.44
77583;BME280;66726;52.388;9.986;2024-01-15T13:08:13;98849.59;;;1.59;99.72
77583;BME280;66726;52.388;9.986;2024-01-15T13:10:42;98850.44;;;1.60;100.00
77583;BME280;66726;52.388;9.986;2024-01-15T13:13:11;98848.63;;;1.60;100.00